Time;durP1;ratioP1;P1;durP2;ratioP2;P2;SDS_P1;SDS_P2;PMS_P1;PMS_P2;Temp;Humidity;BMP_temperature;BMP_pressure;BME280_temperature;BME280_humidity;BME280_pressure;Samples;Min_cycle;Max_cycle;Signal;HPM_P1;HPM_P2
2022/09/06 00:01:41;;;;;;;7.97;6.68;;;26.40;1.00;;;;;;5022552;28;20071;-51
2022/09/06 00:04:07;;;;;;;9.27;6.72;;;26.40;1.00;;;;;;5039510;28;20483;-51
2022/09/06 00:06:34;;;;;;;10.20;7.63;;;26.40;1.00;;;;;;5037492;28;20044;-51
2022/09/06 00:08:59;;;;;;;6.90;6.30;;;26.40;1.00;;;;;;5040459;28;20594;-50
2022/09/06 00:11:25;;;;;;;7.78;6.45;;;26.40;1.00;;;;;;5037287;28;20071;-56
2022/09/06 00:13:51;;;;;;;7.65;6.32;;;26.40;1.00;;;;;;5042313;28;20065;-54
2022/09/06 00:16:21;;;;;;;9.77;7.47;;;26.30;1.00;;;;;;5034438;28;20122;-55
2022/09/06 00:18:47;;;;;;;8.25;6.80;;;26.30;1.00;;;;;;5041535;28;20444;-56
2022/09/06 00:21:16;;;;;;;7.38;6.68;;;26.20;1.00;;;;;;5034706;28;20053;-54
2022/09/06 00:23:42;;;;;;;7.60;6.90;;;26.20;1.00;;;;;;5033589;28;20049;-55
2022/09/06 00:26:07;;;;;;;8.25;7.32;;;26.20;1.00;;;;;;5033587;28;20036;-55
2022/09/06 00:28:33;;;;;;;6.90;6.22;;;26.30;1.00;;;;;;5032310;28;20029;-55
2022/09/06 00:31:14;;;;;;;8.23;7.38;;;26.20;1.00;;;;;;5033551;28;20036;-54
2022/09/06 00:33:39;;;;;;;8.68;6.90;;;26.20;1.00;;;;;;5033319;28;20064;-52
2022/09/06 00:36:06;;;;;;;8.75;7.15;;;26.20;1.00;;;;;;5034096;28;20026;-55
2022/09/06 00:38:31;;;;;;;7.82;7.13;;;26.20;1.00;;;;;;5042538;28;20033;-54
2022/09/06 00:40:57;;;;;;;7.90;6.75;;;26.20;1.00;;;;;;5034831;28;20017;-51
2022/09/06 00:43:23;;;;;;;8.35;6.80;;;26.10;1.00;;;;;;5041910;28;20041;-52
2022/09/06 00:45:49;;;;;;;8.45;7.32;;;26.10;1.00;;;;;;5034249;28;20053;-50
2022/09/06 00:48:15;;;;;;;7.38;6.60;;;26.10;1.00;;;;;;5036922;28;20061;-50
2022/09/06 00:50:45;;;;;;;8.02;6.72;;;26.00;1.00;;;;;;5033740;28;20104;-50
2022/09/06 00:53:10;;;;;;;10.05;7.05;;;25.90;1.00;;;;;;5031365;28;20049;-51
2022/09/06 00:55:36;;;;;;;8.65;7.05;;;26.00;1.00;;;;;;5037407;28;20079;-51
2022/09/06 00:58:02;;;;;;;11.57;7.15;;;25.90;1.00;;;;;;5038788;28;20040;-50
2022/09/06 01:00:28;;;;;;;9.82;6.75;;;26.00;1.00;;;;;;5033792;28;20032;-49
2022/09/06 01:02:54;;;;;;;9.30;7.55;;;26.00;1.00;;;;;;5040269;28;20033;-51
2022/09/06 01:05:23;;;;;;;8.20;7.40;;;25.90;1.00;;;;;;5032918;28;20057;-54
2022/09/06 01:08:12;;;;;;;9.70;7.78;;;25.90;1.00;;;;;;5049828;28;20086;-54
2022/09/06 01:10:59;;;;;;;8.20;7.32;;;25.90;1.00;;;;;;5037264;28;20037;-55
2022/09/06 01:13:43;;;;;;;10.20;6.82;;;25.80;1.00;;;;;;5040131;28;20084;-50
2022/09/06 01:16:20;;;;;;;10.60;7.65;;;25.80;1.00;;;;;;5031460;28;20044;-51
2022/09/06 01:18:48;;;;;;;7.95;7.15;;;25.80;1.00;;;;;;5041696;28;20052;-51
2022/09/06 01:21:24;;;;;;;9.55;8.55;;;25.80;1.00;;;;;;5032730;28;20026;-52
2022/09/06 01:24:19;;;;;;;8.23;7.43;;;25.80;1.00;;;;;;5031668;28;20057;-50
2022/09/06 01:27:11;;;;;;;8.52;7.78;;;25.80;1.00;;;;;;5032439;28;20018;-53
2022/09/06 01:29:51;;;;;;;8.07;7.25;;;25.80;1.00;;;;;;5023600;28;20402;-49
2022/09/06 01:32:31;;;;;;;9.50;7.90;;;25.80;1.00;;;;;;5034019;28;20026;-52
2022/09/06 01:35:37;;;;;;;9.25;7.35;;;25.80;1.00;;;;;;5040223;28;20053;-54
2022/09/06 01:38:04;;;;;;;8.88;8.00;;;25.70;1.00;;;;;;4989432;28;20069;-52
2022/09/06 01:40:33;;;;;;;8.23;7.05;;;25.70;1.00;;;;;;5027817;28;20092;-52
2022/09/06 01:42:59;;;;;;;7.80;7.05;;;25.70;1.00;;;;;;5039060;28;20082;-50
2022/09/06 01:45:48;;;;;;;10.23;7.75;;;25.70;1.00;;;;;;5036998;28;20037;-51
2022/09/06 01:48:36;;;;;;;8.45;7.65;;;25.60;1.00;;;;;;5030097;28;20116;-50
2022/09/06 01:51:28;;;;;;;8.02;7.22;;;25.70;1.00;;;;;;5033679;28;20017;-50
2022/09/06 01:54:22;;;;;;;8.40;7.55;;;25.70;1.00;;;;;;5045291;28;20048;-51
2022/09/06 01:56:53;;;;;;;8.73;7.70;;;25.70;1.00;;;;;;5032965;28;20021;-54
2022/09/06 01:59:40;;;;;;;8.95;8.00;;;25.60;1.00;;;;;;5031900;28;20044;-55
2022/09/06 02:02:20;;;;;;;8.63;7.25;;;25.70;1.00;;;;;;5039397;28;20040;-50
2022/09/06 02:04:56;;;;;;;8.02;7.32;;;25.80;1.00;;;;;;5019870;28;20095;-50
2022/09/06 02:07:25;;;;;;;8.43;7.55;;;25.80;1.00;;;;;;5032592;28;20022;-54
2022/09/06 02:10:06;;;;;;;8.15;7.35;;;25.70;1.00;;;;;;5044399;28;20024;-56
2022/09/06 02:12:35;;;;;;;8.35;7.30;;;25.80;1.00;;;;;;5031471;28;20033;-56
2022/09/06 02:15:13;;;;;;;8.20;7.30;;;25.70;1.00;;;;;;5032318;28;20111;-55
2022/09/06 02:17:45;;;;;;;8.07;7.07;;;25.80;1.00;;;;;;5031550;28;20132;-56
2022/09/06 02:20:23;;;;;;;7.40;6.80;;;25.70;1.00;;;;;;5032166;28;20497;-52
2022/09/06 02:22:51;;;;;;;8.88;8.07;;;25.70;1.00;;;;;;5031278;28;20095;-56
2022/09/06 02:25:44;;;;;;;7.97;7.30;;;25.70;1.00;;;;;;5032405;28;20033;-54
2022/09/06 02:28:16;;;;;;;7.90;7.20;;;25.70;1.00;;;;;;5031260;28;20038;-56
2022/09/06 02:30:47;;;;;;;7.55;6.95;;;25.60;1.00;;;;;;5030287;28;20033;-54
2022/09/06 02:33:18;;;;;;;8.77;7.47;;;25.70;1.00;;;;;;5033442;28;20049;-56
2022/09/06 02:35:49;;;;;;;10.15;7.53;;;25.60;1.00;;;;;;5032367;28;20048;-52
2022/09/06 02:38:20;;;;;;;7.93;7.18;;;25.60;1.00;;;;;;5031853;28;20056;-53
2022/09/06 02:40:48;;;;;;;8.77;6.97;;;25.60;1.00;;;;;;5040119;28;20425;-55
2022/09/06 02:43:14;;;;;;;7.50;6.80;;;25.60;1.00;;;;;;5032011;28;20033;-51
2022/09/06 02:45:40;;;;;;;8.00;7.32;;;25.60;1.00;;;;;;5030918;28;20033;-49
2022/09/06 02:48:05;;;;;;;8.02;7.30;;;25.60;1.00;;;;;;5032111;28;20022;-53
2022/09/06 02:50:31;;;;;;;11.52;7.68;;;25.60;1.00;;;;;;5027797;28;20522;-54
2022/09/06 02:53:09;;;;;;;8.05;7.30;;;25.60;1.00;;;;;;5031852;28;20037;-52
2022/09/06 02:55:35;;;;;;;8.77;7.90;;;25.50;1.00;;;;;;5042072;28;20430;-51
2022/09/06 02:58:01;;;;;;;7.07;6.38;;;25.60;1.00;;;;;;5025597;28;20390;-52
2022/09/06 03:00:28;;;;;;;8.45;7.15;;;25.60;1.00;;;;;;5020591;28;20120;-56
2022/09/06 03:02:54;;;;;;;7.75;7.10;;;25.60;1.00;;;;;;5040702;28;20555;-55
2022/09/06 03:05:24;;;;;;;7.93;7.15;;;25.60;1.00;;;;;;5030583;28;20057;-56
2022/09/06 03:07:50;;;;;;;8.23;7.53;;;25.60;1.00;;;;;;5031631;28;20029;-53
2022/09/06 03:10:21;;;;;;;7.72;7.03;;;25.60;1.00;;;;;;5034550;28;20037;-55
2022/09/06 03:12:46;;;;;;;7.15;6.47;;;25.60;1.00;;;;;;5031614;28;20060;-51
2022/09/06 03:15:14;;;;;;;8.73;7.82;;;25.50;1.00;;;;;;5033260;28;20025;-55
2022/09/06 03:17:40;;;;;;;7.80;7.10;;;25.50;1.00;;;;;;5030737;28;20032;-55
2022/09/06 03:20:08;;;;;;;8.80;7.75;;;25.50;1.00;;;;;;5030555;28;20034;-55
2022/09/06 03:22:34;;;;;;;7.90;7.20;;;25.50;1.00;;;;;;5034913;28;20021;-55
2022/09/06 03:25:08;;;;;;;8.10;7.30;;;25.40;1.00;;;;;;5039381;28;20086;-55
2022/09/06 03:27:34;;;;;;;6.95;6.45;;;25.40;1.00;;;;;;5021462;28;20032;-54
2022/09/06 03:30:00;;;;;;;8.32;7.40;;;25.40;1.00;;;;;;5033617;28;20055;-56
2022/09/06 03:32:25;;;;;;;8.23;7.53;;;25.40;1.00;;;;;;5035228;28;20018;-54
2022/09/06 03:34:51;;;;;;;8.68;7.70;;;25.30;1.00;;;;;;5034287;28;20214;-54
2022/09/06 03:37:18;;;;;;;8.38;6.95;;;25.30;1.00;;;;;;5034298;28;20028;-55
2022/09/06 03:39:43;;;;;;;8.10;6.55;;;25.20;1.00;;;;;;5037283;28;20239;-55
2022/09/06 03:42:09;;;;;;;7.40;6.80;;;25.20;1.00;;;;;;5040867;28;20091;-52
2022/09/06 03:44:35;;;;;;;8.05;6.93;;;25.20;1.00;;;;;;5034365;28;20486;-53
2022/09/06 03:47:00;;;;;;;8.00;6.65;;;25.10;1.00;;;;;;5035250;28;20094;-52
2022/09/06 03:49:26;;;;;;;8.07;7.03;;;25.20;1.00;;;;;;5032879;28;20531;-51
2022/09/06 03:51:52;;;;;;;7.97;7.05;;;25.20;1.00;;;;;;5025349;28;20445;-53
2022/09/06 03:54:17;;;;;;;6.43;5.93;;;25.10;1.00;;;;;;5033379;28;20049;-55
2022/09/06 03:56:43;;;;;;;8.32;6.65;;;25.20;1.00;;;;;;5044635;28;20037;-55
2022/09/06 03:59:09;;;;;;;9.18;6.53;;;25.00;1.00;;;;;;5033442;28;20522;-55
2022/09/06 04:04:57;;;;;;;8.27;6.95;;;25.10;1.00;;;;;;5020031;28;20052;-54
2022/09/06 04:07:22;;;;;;;11.68;7.13;;;25.00;1.00;;;;;;5034359;28;20037;-51
2022/09/06 04:16:32;;;;;;;8.32;7.57;;;25.10;1.00;;;;;;5022457;28;20060;-52
2022/09/06 04:18:59;;;;;;;10.00;8.38;;;25.00;1.00;;;;;;5034850;28;20017;-49
2022/09/06 04:21:26;;;;;;;9.00;8.18;;;25.00;1.00;;;;;;5027058;28;20053;-52
2022/09/06 04:23:51;;;;;;;8.82;7.95;;;25.00;1.00;;;;;;5029134;28;20022;-54
2022/09/06 04:26:17;;;;;;;9.75;8.82;;;25.00;1.00;;;;;;5042340;28;20022;-51
2022/09/06 04:28:42;;;;;;;9.60;8.27;;;25.00;1.00;;;;;;5034383;28;20041;-51
2022/09/06 04:31:08;;;;;;;9.85;8.98;;;25.00;1.00;;;;;;5033842;28;20039;-52
2022/09/06 04:33:36;;;;;;;10.85;8.85;;;24.90;1.00;;;;;;5028968;28;20479;-56
2022/09/06 04:36:07;;;;;;;11.77;8.93;;;24.90;1.00;;;;;;5041938;28;20111;-56
2022/09/06 04:38:38;;;;;;;12.52;9.30;;;24.90;1.00;;;;;;5035143;28;20025;-56
2022/09/06 04:41:05;;;;;;;12.45;9.07;;;24.90;1.00;;;;;;5040397;28;20036;-55
2022/09/06 04:43:31;;;;;;;10.45;9.05;;;24.80;1.00;;;;;;5037575;28;20104;-54
2022/09/06 04:46:06;;;;;;;9.32;8.52;;;24.90;1.00;;;;;;5028507;28;20097;-54
2022/09/06 04:48:31;;;;;;;9.60;8.23;;;24.90;1.00;;;;;;5029835;28;20045;-55
2022/09/06 04:50:57;;;;;;;9.55;7.95;;;24.80;1.00;;;;;;5033404;28;20036;-55
2022/09/06 04:53:23;;;;;;;10.68;9.27;;;24.90;1.00;;;;;;5033750;28;20045;-55
2022/09/06 04:55:48;;;;;;;10.73;9.10;;;24.90;1.00;;;;;;5033121;28;20036;-53
2022/09/06 04:58:14;;;;;;;9.45;8.68;;;24.80;1.00;;;;;;5033920;28;20104;-55
2022/09/06 05:00:43;;;;;;;13.68;8.93;;;24.80;1.00;;;;;;5031934;28;20483;-55
2022/09/06 05:03:15;;;;;;;10.25;9.00;;;24.80;1.00;;;;;;5035328;28;20081;-52
2022/09/06 05:05:40;;;;;;;11.23;9.43;;;24.80;1.00;;;;;;5036808;28;20044;-55
2022/09/06 05:08:06;;;;;;;11.65;9.50;;;24.80;1.00;;;;;;5033746;28;20025;-54
2022/09/06 05:10:32;;;;;;;9.95;9.05;;;24.80;1.00;;;;;;5036732;28;20060;-55
2022/09/06 05:12:57;;;;;;;10.95;9.85;;;24.80;1.00;;;;;;5038402;28;20132;-54
2022/09/06 05:15:23;;;;;;;11.45;10.10;;;24.80;1.00;;;;;;5035078;28;20343;-52
2022/09/06 05:17:49;;;;;;;12.50;11.20;;;24.80;1.00;;;;;;5040507;28;20602;-53
2022/09/06 05:20:15;;;;;;;15.75;10.88;;;24.80;1.00;;;;;;5032764;28;20124;-53
2022/09/06 05:22:40;;;;;;;13.05;11.70;;;24.70;1.00;;;;;;5033377;28;20423;-52
2022/09/06 05:25:08;;;;;;;12.77;11.57;;;24.80;1.00;;;;;;5032402;28;20014;-55
2022/09/06 05:27:34;;;;;;;16.50;12.45;;;24.80;1.00;;;;;;5049024;28;20439;-52
2022/09/06 05:29:59;;;;;;;13.85;12.55;;;24.80;1.00;;;;;;5036637;28;20088;-55
2022/09/06 05:32:25;;;;;;;14.25;11.38;;;24.80;1.00;;;;;;5032336;28;20469;-55
2022/09/06 05:34:50;;;;;;;14.75;13.23;;;24.90;1.00;;;;;;5033209;28;20033;-51
2022/09/06 05:37:19;;;;;;;14.27;12.82;;;24.90;1.00;;;;;;5041937;28;20391;-50
2022/09/06 05:39:45;;;;;;;15.52;12.55;;;24.80;1.00;;;;;;5033651;28;20061;-53
2022/09/06 05:42:10;;;;;;;14.38;12.93;;;25.00;1.00;;;;;;5043998;28;20435;-51
2022/09/06 05:44:36;;;;;;;15.00;11.55;;;24.90;1.00;;;;;;5032378;28;20024;-50
2022/09/06 05:47:03;;;;;;;12.82;11.63;;;25.00;1.00;;;;;;5032119;28;20047;-52
2022/09/06 05:49:30;;;;;;;13.25;12.10;;;25.00;1.00;;;;;;5032865;28;20018;-51
2022/09/06 05:51:56;;;;;;;17.35;13.32;;;25.00;1.00;;;;;;5043922;28;20033;-55
2022/09/06 05:54:22;;;;;;;16.05;13.30;;;25.10;1.00;;;;;;5043895;28;20036;-55
2022/09/06 05:56:48;;;;;;;13.80;12.50;;;25.00;1.00;;;;;;5042882;28;20485;-54
2022/09/06 05:59:13;;;;;;;17.10;14.13;;;25.10;1.00;;;;;;5034693;28;20106;-55
2022/09/06 06:01:50;;;;;;;15.90;14.40;;;25.10;1.00;;;;;;5032024;28;20033;-53
2022/09/06 06:04:17;;;;;;;18.13;14.30;;;25.10;1.00;;;;;;5032363;28;20028;-53
2022/09/06 06:06:44;;;;;;;20.00;15.00;;;25.20;1.00;;;;;;5032510;28;20034;-53
2022/09/06 06:09:09;;;;;;;17.02;15.35;;;25.10;1.00;;;;;;5031012;28;20418;-52
2022/09/06 06:11:35;;;;;;;16.65;14.95;;;25.20;1.00;;;;;;5031948;28;20236;-55
2022/09/06 06:14:02;;;;;;;20.55;15.65;;;25.20;1.00;;;;;;5032726;28;20041;-54
2022/09/06 06:16:28;;;;;;;17.15;14.45;;;25.30;1.00;;;;;;5036974;28;20561;-51
2022/09/06 06:19:31;;;;;;;19.45;14.48;;;25.30;1.00;;;;;;5030694;28;20112;-54
2022/09/06 06:21:57;;;;;;;15.52;14.02;;;25.30;1.00;;;;;;5032190;28;20104;-52
2022/09/06 06:24:22;;;;;;;16.48;14.23;;;25.30;1.00;;;;;;5030933;28;20101;-51
2022/09/06 06:26:48;;;;;;;15.48;13.95;;;25.20;1.00;;;;;;5030781;28;20041;-53
2022/09/06 06:29:14;;;;;;;15.65;14.13;;;25.30;1.00;;;;;;5030273;28;20080;-52
2022/09/06 06:31:40;;;;;;;15.27;13.70;;;25.20;1.00;;;;;;5033107;28;20040;-55
2022/09/06 06:34:06;;;;;;;15.38;13.80;;;25.20;1.00;;;;;;5031721;28;20022;-53
2022/09/06 06:36:34;;;;;;;16.75;15.13;;;25.20;1.00;;;;;;5030787;28;20025;-51
2022/09/06 06:39:01;;;;;;;15.95;14.45;;;25.20;1.00;;;;;;5032063;28;20061;-50
2022/09/06 06:41:29;;;;;;;16.10;14.50;;;25.20;1.00;;;;;;5032345;28;20109;-51
2022/09/06 06:43:56;;;;;;;18.02;16.15;;;25.20;1.00;;;;;;5031819;28;20103;-53
2022/09/06 06:46:27;;;;;;;21.67;15.93;;;25.30;1.00;;;;;;5034031;28;20034;-50
2022/09/06 06:48:54;;;;;;;17.40;13.90;;;25.30;1.00;;;;;;5030785;28;20030;-49
2022/09/06 06:51:21;;;;;;;16.02;14.45;;;25.40;1.00;;;;;;5034722;28;20325;-52
2022/09/06 06:53:47;;;;;;;14.77;13.10;;;25.60;1.00;;;;;;5030359;28;20057;-51
2022/09/06 06:56:15;;;;;;;14.40;12.90;;;25.60;1.00;;;;;;5030742;28;20094;-49
2022/09/06 06:58:41;;;;;;;14.38;13.07;;;25.60;1.00;;;;;;5031784;28;20048;-50
2022/09/06 07:01:07;;;;;;;17.92;13.77;;;25.60;1.00;;;;;;5033480;28;20100;-52
2022/09/06 07:03:32;;;;;;;15.63;13.40;;;25.60;1.00;;;;;;5031261;28;20030;-51
2022/09/06 07:05:58;;;;;;;14.75;13.35;;;25.60;1.00;;;;;;5033990;28;20092;-50
2022/09/06 07:08:24;;;;;;;14.40;13.00;;;25.70;1.00;;;;;;5030306;28;20087;-50
2022/09/06 07:10:49;;;;;;;13.85;12.40;;;25.70;1.00;;;;;;5030804;28;20026;-51
2022/09/06 07:13:15;;;;;;;16.10;13.13;;;25.60;1.00;;;;;;5030159;28;20078;-54
2022/09/06 07:16:05;;;;;;;14.38;12.88;;;25.60;1.00;;;;;;5035017;28;20052;-52
2022/09/06 07:18:31;;;;;;;16.77;13.07;;;25.70;1.00;;;;;;5020201;28;20432;-53
2022/09/06 07:20:56;;;;;;;20.85;12.65;;;25.60;1.00;;;;;;5035609;28;20067;-55
2022/09/06 07:23:24;;;;;;;15.13;12.73;;;25.60;1.00;;;;;;5031542;28;20383;-54
2022/09/06 07:25:49;;;;;;;14.73;12.95;;;25.60;1.00;;;;;;5035207;28;20025;-55
2022/09/06 07:28:15;;;;;;;14.55;12.85;;;25.60;1.00;;;;;;5032922;28;20030;-54
2022/09/06 07:30:41;;;;;;;15.52;14.00;;;25.60;1.00;;;;;;5030266;28;20121;-51
2022/09/06 07:33:06;;;;;;;14.38;12.98;;;25.50;1.00;;;;;;5031305;28;20072;-54
2022/09/06 07:35:33;;;;;;;15.55;13.55;;;25.50;1.00;;;;;;5030565;28;20026;-54
2022/09/06 07:38:00;;;;;;;14.27;12.90;;;25.50;1.00;;;;;;5030396;28;20030;-55
2022/09/06 07:40:29;;;;;;;14.32;12.18;;;25.40;1.00;;;;;;5031445;28;20104;-54
2022/09/06 07:42:59;;;;;;;15.65;14.10;;;25.50;1.00;;;;;;5039485;28;20026;-54
2022/09/06 07:45:25;;;;;;;18.33;14.35;;;25.50;1.00;;;;;;5030308;28;20146;-56
2022/09/06 07:47:58;;;;;;;15.43;13.45;;;25.60;1.00;;;;;;5039157;28;20022;-54
2022/09/06 07:50:25;;;;;;;16.33;14.75;;;25.60;1.00;;;;;;5043577;28;20136;-56
2022/09/06 07:52:51;;;;;;;15.07;13.50;;;25.50;1.00;;;;;;5030986;28;20033;-56
2022/09/06 07:55:16;;;;;;;16.65;14.90;;;25.60;1.00;;;;;;5032008;28;20038;-56
2022/09/06 07:57:42;;;;;;;15.30;13.70;;;25.60;1.00;;;;;;5031131;28;20009;-55
2022/09/06 08:00:10;;;;;;;17.20;12.98;;;25.60;1.00;;;;;;5043684;28;20104;-53
2022/09/06 08:02:35;;;;;;;18.13;12.77;;;25.70;1.00;;;;;;5017430;28;20006;-55
2022/09/06 08:05:02;;;;;;;13.55;12.00;;;25.80;1.00;;;;;;5030954;28;20503;-56
2022/09/06 08:07:27;;;;;;;13.00;11.63;;;25.70;1.00;;;;;;5035492;28;20044;-56
2022/09/06 08:09:53;;;;;;;19.23;16.88;;;25.70;1.00;;;;;;5034870;28;20037;-55
2022/09/06 08:12:18;;;;;;;15.18;13.77;;;25.80;1.00;;;;;;5033648;28;20021;-56
2022/09/06 08:14:45;;;;;;;16.15;13.90;;;25.70;1.00;;;;;;5034442;28;20494;-56
2022/09/06 08:17:10;;;;;;;13.15;11.95;;;25.80;1.00;;;;;;5034627;28;20423;-54
2022/09/06 08:19:36;;;;;;;14.65;11.93;;;25.80;1.00;;;;;;5033847;28;20022;-55
2022/09/06 08:22:01;;;;;;;15.32;12.82;;;25.90;1.00;;;;;;5033301;28;20472;-56
2022/09/06 08:24:30;;;;;;;12.85;11.55;;;25.90;1.00;;;;;;5028058;28;20103;-54
2022/09/06 08:26:55;;;;;;;12.57;11.38;;;25.90;1.00;;;;;;5034363;28;20479;-56
2022/09/06 08:29:21;;;;;;;14.75;13.10;;;26.00;1.00;;;;;;5032750;28;20029;-56
2022/09/06 08:31:53;;;;;;;12.73;11.52;;;25.90;1.00;;;;;;5034287;28;20025;-55
2022/09/06 08:34:18;;;;;;;16.42;11.63;;;26.00;1.00;;;;;;5036441;28;20069;-54
2022/09/06 08:36:44;;;;;;;12.98;11.77;;;26.10;1.00;;;;;;5038587;28;20056;-56
2022/09/06 08:39:10;;;;;;;14.07;12.75;;;26.10;1.00;;;;;;5037572;28;20052;-56
2022/09/06 08:41:47;;;;;;;13.85;12.55;;;26.10;1.00;;;;;;5034668;28;20034;-54
2022/09/06 08:44:24;;;;;;;18.83;11.82;;;26.10;1.00;;;;;;5033432;28;20029;-56
2022/09/06 08:46:59;;;;;;;17.58;15.88;;;26.20;1.00;;;;;;5034087;28;20053;-55
2022/09/06 08:49:31;;;;;;;14.95;13.02;;;26.20;1.00;;;;;;5031873;28;20487;-56
2022/09/06 08:52:34;;;;;;;16.58;15.02;;;26.30;1.00;;;;;;5028290;28;20041;-56
2022/09/06 08:55:21;;;;;;;15.90;14.32;;;26.30;1.00;;;;;;5041433;28;20052;-54
2022/09/06 08:58:02;;;;;;;16.17;14.52;;;26.40;1.00;;;;;;5033902;28;20448;-56
2022/09/06 09:00:37;;;;;;;18.05;15.65;;;26.40;1.00;;;;;;5044673;28;20091;-54
2022/09/06 09:03:23;;;;;;;16.17;13.45;;;26.40;1.00;;;;;;5037673;28;20116;-55
2022/09/06 09:05:52;;;;;;;17.50;15.80;;;26.40;1.00;;;;;;5041650;28;20055;-54
2022/09/06 09:08:26;;;;;;;17.38;15.68;;;26.50;1.00;;;;;;5033514;28;20509;-56
2022/09/06 09:11:07;;;;;;;16.50;14.80;;;26.50;1.00;;;;;;5032882;28;20036;-51
2022/09/06 09:13:41;;;;;;;16.60;14.93;;;26.50;1.00;;;;;;5033044;28;20092;-54
2022/09/06 09:16:07;;;;;;;16.17;14.50;;;26.60;1.00;;;;;;5037541;28;20434;-52
2022/09/06 09:18:37;;;;;;;14.15;12.65;;;26.60;1.00;;;;;;5032146;28;20109;-53
2022/09/06 09:21:03;;;;;;;18.70;15.23;;;26.70;1.00;;;;;;5032443;28;20021;-51
2022/09/06 09:23:32;;;;;;;23.08;16.70;;;26.80;1.00;;;;;;5033497;28;20029;-54
2022/09/06 09:26:04;;;;;;;18.38;16.77;;;26.80;1.00;;;;;;5032486;28;20014;-53
2022/09/06 09:28:30;;;;;;;19.30;15.60;;;26.80;1.00;;;;;;5033339;28;20032;-56
2022/09/06 09:30:56;;;;;;;17.70;16.02;;;26.80;1.00;;;;;;5042426;28;20112;-54
2022/09/06 09:33:31;;;;;;;21.58;19.33;;;26.90;1.00;;;;;;5033543;28;20030;-55
2022/09/06 09:36:04;;;;;;;19.58;15.60;;;26.90;1.00;;;;;;5027715;28;20390;-56
2022/09/06 09:41:30;;;;;;;19.85;17.90;;;27.00;1.00;;;;;;5023154;28;20084;-56
2022/09/06 09:44:02;;;;;;;20.27;18.25;;;27.10;1.00;;;;;;5029389;28;20064;-56
2022/09/06 09:46:31;;;;;;;18.00;15.90;;;27.10;1.00;;;;;;5029770;28;20025;-55
2022/09/06 09:49:23;;;;;;;16.73;14.32;;;27.20;1.00;;;;;;5029208;28;20063;-55
2022/09/06 09:52:06;;;;;;;16.05;13.98;;;27.20;1.00;;;;;;5028558;28;20029;-57
2022/09/06 09:54:36;;;;;;;19.75;17.63;;;27.30;1.00;;;;;;5027674;28;20472;-55
2022/09/06 09:57:07;;;;;;;14.75;13.40;;;27.30;1.00;;;;;;5027649;28;20053;-57
2022/09/06 09:59:57;;;;;;;19.02;15.63;;;27.40;1.00;;;;;;5028831;28;20037;-50
2022/09/06 10:02:39;;;;;;;17.08;15.38;;;27.40;1.00;;;;;;5028027;28;20033;-55
2022/09/06 10:05:18;;;;;;;24.25;21.40;;;27.50;1.00;;;;;;5025995;28;20134;-54
2022/09/06 10:07:54;;;;;;;95.22;61.70;;;27.50;1.00;;;;;;5039043;28;20537;-55
2022/09/06 10:10:29;;;;;;;29.58;23.88;;;27.60;1.00;;;;;;5026480;28;20036;-52
2022/09/06 10:13:19;;;;;;;18.15;15.95;;;27.60;1.00;;;;;;5028290;28;20046;-52
2022/09/06 10:15:45;;;;;;;17.17;14.18;;;27.70;1.00;;;;;;5038176;28;20041;-52
2022/09/06 10:18:27;;;;;;;15.30;12.75;;;27.70;1.00;;;;;;5031822;28;20029;-54
2022/09/06 10:20:58;;;;;;;15.20;13.73;;;27.80;1.00;;;;;;5028711;28;20037;-53
2022/09/06 10:24:05;;;;;;;15.40;13.90;;;27.80;1.00;;;;;;5022766;28;20116;-54
2022/09/06 10:26:33;;;;;;;14.35;11.60;;;27.90;1.00;;;;;;5026039;28;20112;-55
2022/09/06 10:29:04;;;;;;;14.32;13.02;;;27.90;1.00;;;;;;5027460;28;20427;-55
2022/09/06 10:31:40;;;;;;;13.57;12.30;;;27.90;1.00;;;;;;5027670;28;20421;-56
2022/09/06 10:34:31;;;;;;;18.40;16.65;;;28.00;1.00;;;;;;5030044;28;20558;-55
2022/09/06 10:37:19;;;;;;;17.60;14.07;;;28.10;1.00;;;;;;5025552;28;20041;-55
2022/09/06 10:39:58;;;;;;;13.40;11.95;;;28.10;1.00;;;;;;5026546;28;20091;-57
2022/09/06 10:42:41;;;;;;;14.43;12.38;;;28.20;1.00;;;;;;5029080;28;20051;-55
2022/09/06 10:45:16;;;;;;;12.90;11.25;;;28.30;1.00;;;;;;5028960;28;20395;-52
2022/09/06 10:48:03;;;;;;;11.90;10.70;;;28.30;1.00;;;;;;5027122;28;20483;-54
2022/09/06 10:50:49;;;;;;;10.95;9.98;;;28.40;1.00;;;;;;5027857;28;20041;-56
2022/09/06 10:53:34;;;;;;;13.55;9.82;;;28.70;1.00;;;;;;5035531;28;20045;-55
2022/09/06 10:56:14;;;;;;;12.50;10.48;;;28.80;1.00;;;;;;5027506;28;20040;-53
2022/09/06 10:59:03;;;;;;;11.18;8.25;;;28.90;1.00;;;;;;5029238;28;20703;-55
2022/09/06 11:01:32;;;;;;;10.50;9.60;;;29.00;1.00;;;;;;5023104;28;20710;-56
2022/09/06 11:03:59;;;;;;;9.82;8.48;;;29.10;1.00;;;;;;5026948;28;20118;-57
2022/09/06 11:06:31;;;;;;;15.63;11.10;;;29.10;1.00;;;;;;5028031;28;20068;-56
2022/09/06 11:09:36;;;;;;;14.85;13.30;;;29.20;1.00;;;;;;5027154;28;20030;-55
2022/09/06 11:12:13;;;;;;;24.02;16.30;;;29.20;1.00;;;;;;5027888;28;20037;-55
2022/09/06 11:14:40;;;;;;;13.15;10.63;;;29.20;1.00;;;;;;5027021;28;20120;-52
2022/09/06 11:17:08;;;;;;;11.55;9.48;;;29.20;1.00;;;;;;5025651;28;20025;-55
2022/09/06 11:20:08;;;;;;;10.88;9.80;;;29.40;1.00;;;;;;5027063;28;20030;-56
2022/09/06 11:23:11;;;;;;;13.73;11.02;;;29.50;1.00;;;;;;5027044;28;20036;-56
2022/09/06 11:25:59;;;;;;;9.80;8.80;;;29.50;1.00;;;;;;5031069;28;20045;-56
2022/09/06 11:29:07;;;;;;;14.95;10.60;;;29.50;1.00;;;;;;5035695;28;20029;-56
2022/09/06 11:31:48;;;;;;;10.63;9.68;;;29.60;1.00;;;;;;5023549;28;20439;-57
2022/09/06 11:34:36;;;;;;;13.00;11.18;;;29.80;1.00;;;;;;5033614;28;20078;-54
2022/09/06 11:37:20;;;;;;;10.35;8.23;;;29.90;1.00;;;;;;5048162;28;20155;-56
2022/09/06 11:40:06;;;;;;;11.18;10.13;;;29.90;1.00;;;;;;5018051;28;20032;-56
2022/09/06 11:42:59;;;;;;;16.35;10.70;;;30.10;1.00;;;;;;5031462;28;20025;-55
2022/09/06 11:45:52;;;;;;;8.57;7.77;;;30.10;1.00;;;;;;5033817;28;20052;-57
2022/09/06 11:48:58;;;;;;;10.02;9.10;;;30.20;1.00;;;;;;5034194;28;20306;-55
2022/09/06 11:51:38;;;;;;;8.75;8.00;;;30.60;1.00;;;;;;5034000;28;20036;-57
2022/09/06 11:54:13;;;;;;;9.23;8.23;;;30.60;1.00;;;;;;5038472;28;20037;-56
2022/09/06 11:56:59;;;;;;;9.63;7.80;;;30.80;1.00;;;;;;5035440;28;20385;-56
2022/09/06 11:59:34;;;;;;;10.02;8.77;;;30.80;1.00;;;;;;5032116;28;20037;-53
2022/09/06 12:02:06;;;;;;;8.60;7.75;;;30.90;1.00;;;;;;5048826;28;20025;-57
2022/09/06 12:04:57;;;;;;;8.80;7.03;;;31.00;1.00;;;;;;5034622;28;20048;-57
2022/09/06 12:08:11;;;;;;;7.30;6.60;;;31.00;1.00;;;;;;5040495;28;20393;-55
2022/09/06 12:10:44;;;;;;;8.85;8.05;;;31.20;1.00;;;;;;5024003;28;20025;-57
2022/09/06 12:13:32;;;;;;;8.77;7.97;;;31.30;1.00;;;;;;5036362;28;20043;-57
2022/09/06 12:15:59;;;;;;;7.97;7.40;;;31.40;1.00;;;;;;5036969;28;21965;-56
2022/09/06 12:18:55;;;;;;;8.38;7.30;;;32.00;1.00;;;;;;5029600;28;20029;-55
2022/09/06 12:21:45;;;;;;;8.27;7.38;;;36.60;1.00;;;;;;5028935;28;20049;-58
2022/09/06 12:24:32;;;;;;;9.48;8.77;;;39.90;1.00;;;;;;5024311;28;20209;-58
2022/09/06 12:27:25;;;;;;;9.70;9.00;;;41.60;1.00;;;;;;5044066;28;20597;-57
2022/09/06 12:30:06;;;;;;;9.68;8.95;;;42.00;1.00;;;;;;5034476;28;20376;-57
2022/09/06 12:32:39;;;;;;;7.82;6.97;;;41.70;1.00;;;;;;5046022;28;20128;-53
2022/09/06 12:35:13;;;;;;;8.73;7.78;;;40.80;1.00;;;;;;5033567;28;20072;-56
2022/09/06 12:37:57;;;;;;;8.02;7.32;;;41.30;1.00;;;;;;5022912;28;20087;-57
2022/09/06 12:40:26;;;;;;;9.82;8.85;;;41.00;1.00;;;;;;5033986;28;20451;-56
2022/09/06 12:42:52;;;;;;;11.07;10.00;;;41.70;1.00;;;;;;5034352;28;20146;-58
2022/09/06 12:45:20;;;;;;;10.65;9.65;;;42.70;1.00;;;;;;5033947;28;20025;-58
2022/09/06 12:48:29;;;;;;;10.48;9.48;;;44.10;1.00;;;;;;5033983;28;20021;-57
2022/09/06 12:51:15;;;;;;;10.30;9.35;;;45.70;1.00;;;;;;5028631;28;20526;-57
2022/09/06 12:53:52;;;;;;;10.27;9.43;;;45.60;1.00;;;;;;5031271;28;20061;-57
2022/09/06 12:56:26;;;;;;;10.32;9.23;;;44.80;1.00;;;;;;5033007;28;20026;-57
2022/09/06 12:58:52;;;;;;;10.45;8.25;;;42.70;1.00;;;;;;5035796;28;20025;-57
2022/09/06 13:01:23;;;;;;;11.63;10.68;;;42.50;1.00;;;;;;5032390;28;20029;-57
2022/09/06 13:04:01;;;;;;;9.05;8.45;;;42.10;1.00;;;;;;5042247;28;20508;-57
2022/09/06 13:06:29;;;;;;;9.27;8.57;;;42.10;1.00;;;;;;5032355;28;20095;-57
2022/09/06 13:08:56;;;;;;;8.45;7.85;;;42.50;1.00;;;;;;5032165;28;20033;-57
2022/09/06 13:11:29;;;;;;;8.88;8.35;;;44.60;1.00;;;;;;5030833;28;20091;-57
2022/09/06 13:13:55;;;;;;;11.25;10.23;;;46.10;1.00;;;;;;5030482;28;20037;-57
2022/09/06 13:16:25;;;;;;;10.23;9.32;;;46.50;1.00;;;;;;5029835;28;20021;-57
2022/09/06 13:18:52;;;;;;;9.98;9.38;;;46.70;1.00;;;;;;5030538;28;20117;-57
2022/09/06 13:21:31;;;;;;;8.80;8.18;;;46.50;1.00;;;;;;5029871;28;20100;-57
2022/09/06 13:24:02;;;;;;;10.52;9.57;;;47.30;1.00;;;;;;5027077;28;20092;-57
2022/09/06 13:26:36;;;;;;;8.77;8.00;;;47.30;1.00;;;;;;5027376;28;20370;-57